Aérodrome :
LOGIN :

S'inscrire | Disclaimer

   EN    FR    IT 

 










Légende :    VFR   VFR Marginal   IFR   IFR Intensif   IFR Très Intensif
Visi : 
Plafond : 
>= 8 km
>= 3000ft
5 à 8 km
1000 à 3000 ft
1500m à 5 km
500 à 1000 ft
800 à 1500m
200 à 500 ft
< 800m
< 200 ft
Symboles :   Orages  Brouillard  Fortes neiges  Fortes précipitations  Vent > 20 kt
SIGMETs :   Divers  Orages  Givrage  Turbulence  Onde Orograph.  Cendres Volcan.







- Altitude de l'aérodrome : 313 ft
- Code IATA : LEH
- Voir les cartes d'approche


LFOH - Le Havre Octeville

DERNIER METAR :
  • 230630Z AUTO 22009KT 9999 BKN009 14/12 Q1014 BECMG SCT030

METARs EXPIRÉS :
  • 230600Z AUTO 23010KT 9999 BKN009 14/12 Q1014
  • 230530Z AUTO 23010KT 9999 BKN013 BKN027 14/13 Q1013
  • 230500Z AUTO 24012KT 9999 BKN013 BKN025 15/13 Q1013
  • 230430Z AUTO 25011KT 9999 FEW011 15/12 Q1013
  • 230400Z AUTO 24010KT 9999 BKN012 BKN066 15/13 Q1013
  • 230000Z AUTO 24010KT 200V270 9999 FEW006 SCT012 BKN017 15/14 Q1011

TAF TAF LFOH
Valide du 23 à 06h jusqu'au 24 à 06h UTC


230500Z 2306/2406 24013KT 9999 BKN013
BECMG 2306/2309 SCT030
BECMG 2316/2319 17013KT
TEMPO 2316/2319 4000 RA OVC030
TEMPO 2319/2401 4000 RA OVC013
BECMG 2405/2406 16018G28KT 3000 RA OVC013
ATIS : +33 2 35 54 64 93
Pas de NOTAMs connus pour ce terrain.



MET'MAP, la Météo Aéronautique d'un coup d'oeil ! - Copyright ORBIFLY Décembre 2007 - Disclaimer

ORBIFLY MET'MAP TEAM :

Programmation & Développement : Alexandra Zaïnal
Conception & Développement : Baudouin d'Aumeries
Co-Programmation & Développement : Marc-Olivier Méhu
Soutien technique & logistique : Manuel Goepfert

Contact : metmap@orbifly.com




SOURCES & CREDITS :

   NOAA